createdAt,value
2018-02-15T00:00:37.903Z,1005.74
2018-02-15T00:01:37.881Z,1005.76
2018-02-15T00:02:37.856Z,1005.68
2018-02-15T00:03:37.835Z,1005.69
2018-02-15T00:04:37.814Z,1005.61
2018-02-15T00:05:37.788Z,1005.61
2018-02-15T00:06:37.770Z,1005.64
2018-02-15T00:07:37.750Z,1005.64
2018-02-15T00:08:37.722Z,1005.61
2018-02-15T00:09:37.700Z,1005.66
2018-02-15T00:10:37.680Z,1005.66
2018-02-15T00:11:37.656Z,1005.64
2018-02-15T00:12:37.637Z,1005.66
2018-02-15T00:13:37.611Z,1005.67
2018-02-15T00:14:37.596Z,1005.59
2018-02-15T00:15:37.564Z,1005.59
2018-02-15T00:16:37.544Z,1005.58
2018-02-15T00:17:37.525Z,1005.65
2018-02-15T00:18:37.505Z,1005.64
2018-02-15T00:19:37.476Z,1005.63
2018-02-15T00:20:37.458Z,1005.68
2018-02-15T00:21:37.432Z,1005.66
2018-02-15T00:22:37.410Z,1005.69
2018-02-15T00:23:37.388Z,1005.71
2018-02-15T00:24:37.366Z,1005.67
2018-02-15T00:25:37.347Z,1005.7
2018-02-15T00:26:37.320Z,1005.66
2018-02-15T00:27:37.301Z,1005.67
2018-02-15T00:28:37.277Z,1005.63
2018-02-15T00:29:37.254Z,1005.62
2018-02-15T00:30:37.230Z,1005.64
2018-02-15T00:31:37.209Z,1005.63
2018-02-15T00:32:37.186Z,1005.6
2018-02-15T00:33:37.166Z,1005.66
2018-02-15T00:34:37.143Z,1005.65
2018-02-15T00:35:37.123Z,1005.58
2018-02-15T00:36:37.099Z,1005.56
2018-02-15T00:37:37.076Z,1005.49
2018-02-15T00:38:37.058Z,1005.45
2018-02-15T00:39:37.032Z,1005.36
2018-02-15T00:40:37.011Z,1005.39
2018-02-15T00:41:36.988Z,1005.4
2018-02-15T00:42:36.970Z,1005.35
2018-02-15T00:43:36.943Z,1005.31
2018-02-15T00:44:36.921Z,1005.28
2018-02-15T00:45:36.898Z,1005.26
2018-02-15T00:46:36.876Z,1005.21
2018-02-15T00:47:36.855Z,1005.21
2018-02-15T00:48:36.842Z,1005.17
2018-02-15T00:49:36.812Z,1005.17
2018-02-15T00:50:36.788Z,1005.21
2018-02-15T00:51:36.766Z,1005.17
2018-02-15T00:52:36.745Z,1005.15
2018-02-15T00:53:36.724Z,1005.11
2018-02-15T00:54:36.702Z,1005.09
2018-02-15T00:55:36.677Z,1005.11
2018-02-15T00:56:36.655Z,1005.1
2018-02-15T00:57:36.637Z,1005.1
2018-02-15T00:58:36.612Z,1005.05
2018-02-15T00:59:36.592Z,1005.11
2018-02-15T01:00:36.569Z,1005.13
2018-02-15T01:01:36.545Z,1005.18
2018-02-15T01:02:36.525Z,1005.19
2018-02-15T01:03:36.501Z,1005.24
2018-02-15T01:04:36.483Z,1005.2
2018-02-15T01:05:36.456Z,1005.13
2018-02-15T01:06:36.432Z,1005.07
2018-02-15T01:07:36.412Z,1005.04
2018-02-15T01:08:36.388Z,1004.93
2018-02-15T01:09:36.369Z,1004.91
2018-02-15T01:10:36.345Z,1004.85
2018-02-15T01:11:36.323Z,1004.86
2018-02-15T01:12:36.305Z,1004.77
2018-02-15T01:13:36.279Z,1004.84
2018-02-15T01:14:36.300Z,1004.78
2018-02-15T01:15:36.234Z,1004.83
2018-02-15T01:16:36.213Z,1004.93
2018-02-15T01:17:36.190Z,1004.93
2018-02-15T01:18:36.170Z,1004.96
2018-02-15T01:19:36.145Z,1004.94
2018-02-15T01:20:36.128Z,1004.94
2018-02-15T01:21:36.101Z,1004.99
2018-02-15T01:22:36.079Z,1004.88
2018-02-15T01:23:36.060Z,1004.84
2018-02-15T01:24:36.038Z,1004.69
2018-02-15T01:25:36.013Z,1004.62
2018-02-15T01:26:35.991Z,1004.57
2018-02-15T01:27:35.971Z,1004.52
2018-02-15T01:28:35.952Z,1004.55
2018-02-15T01:29:35.927Z,1004.58
2018-02-15T01:30:35.903Z,1004.59
2018-02-15T01:31:35.885Z,1004.55
2018-02-15T01:32:35.858Z,1004.54
2018-02-15T01:33:35.837Z,1004.54
2018-02-15T01:34:35.821Z,1004.47
2018-02-15T01:35:35.793Z,1004.5
2018-02-15T01:36:35.771Z,1004.49
2018-02-15T01:37:35.749Z,1004.5
2018-02-15T01:38:35.732Z,1004.54
2018-02-15T01:39:35.704Z,1004.55
2018-02-15T01:40:35.684Z,1004.48
2018-02-15T01:41:35.660Z,1004.48
2018-02-15T01:42:35.638Z,1004.45
2018-02-15T01:43:35.619Z,1004.5
2018-02-15T01:44:35.593Z,1004.46
2018-02-15T01:45:35.576Z,1004.47
2018-02-15T01:46:35.551Z,1004.49
2018-02-15T01:47:35.527Z,1004.42
2018-02-15T01:48:35.506Z,1004.49
2018-02-15T01:49:35.484Z,1004.43
2018-02-15T01:50:35.469Z,1004.4
2018-02-15T01:51:35.440Z,1004.39
2018-02-15T01:52:35.427Z,1004.43
2018-02-15T01:53:35.397Z,1004.48
2018-02-15T01:54:35.375Z,1004.51
2018-02-15T01:55:35.353Z,1004.52
2018-02-15T01:56:35.331Z,1004.56
2018-02-15T01:57:35.311Z,1004.58
2018-02-15T01:58:35.285Z,1004.57
2018-02-15T01:59:35.266Z,1004.56
2018-02-15T02:00:35.242Z,1004.53
2018-02-15T02:01:35.221Z,1004.46
2018-02-15T02:02:35.204Z,1004.43
2018-02-15T02:03:35.179Z,1004.35
2018-02-15T02:04:35.157Z,1004.37
2018-02-15T02:05:35.134Z,1004.39
2018-02-15T02:06:35.110Z,1004.4
2018-02-15T02:07:35.089Z,1004.45
2018-02-15T02:08:35.065Z,1004.42
2018-02-15T02:09:35.044Z,1004.47
2018-02-15T02:10:35.024Z,1004.47
2018-02-15T02:11:35.006Z,1004.49
2018-02-15T02:12:34.978Z,1004.46
2018-02-15T02:13:34.959Z,1004.46
2018-02-15T02:14:34.935Z,1004.39
2018-02-15T02:15:34.913Z,1004.33
2018-02-15T02:16:34.891Z,1004.31
2018-02-15T02:17:34.869Z,1004.27
2018-02-15T02:18:34.850Z,1004.23
2018-02-15T02:19:34.823Z,1004.26
2018-02-15T02:20:34.806Z,1004.23
2018-02-15T02:21:34.785Z,1004.27
2018-02-15T02:22:34.760Z,1004.27
2018-02-15T02:23:34.737Z,1004.24
2018-02-15T02:24:34.716Z,1004.25
2018-02-15T02:25:34.696Z,1004.2
2018-02-15T02:26:34.672Z,1004.27
2018-02-15T02:27:34.650Z,1004.21
2018-02-15T02:28:34.628Z,1004.29
2018-02-15T02:29:34.606Z,1004.23
2018-02-15T02:30:34.585Z,1004.26
2018-02-15T02:31:34.560Z,1004.27
2018-02-15T02:32:34.540Z,1004.3
2018-02-15T02:33:34.517Z,1004.24
2018-02-15T02:34:34.497Z,1004.2
2018-02-15T02:35:34.480Z,1004.19
2018-02-15T02:36:34.453Z,1004.12
2018-02-15T02:37:34.429Z,1004.1
2018-02-15T02:38:34.408Z,1004.09
2018-02-15T02:39:34.388Z,1004.07
2018-02-15T02:40:34.362Z,1004.08
2018-02-15T02:41:34.340Z,1004.03
2018-02-15T02:42:34.322Z,1003.99
2018-02-15T02:43:34.298Z,1003.96
2018-02-15T02:44:34.275Z,1003.93
2018-02-15T02:45:34.253Z,1003.92
2018-02-15T02:46:34.232Z,1003.94
2018-02-15T02:47:34.212Z,1003.92
2018-02-15T02:48:34.188Z,1003.93
2018-02-15T02:49:34.166Z,1003.91
2018-02-15T02:50:34.144Z,1003.9
2018-02-15T02:51:34.122Z,1003.86
2018-02-15T02:52:34.107Z,1003.86
2018-02-15T02:53:34.083Z,1003.94
2018-02-15T02:54:34.056Z,1003.95
2018-02-15T02:55:34.034Z,1003.95
2018-02-15T02:56:34.013Z,1003.96
2018-02-15T02:57:33.991Z,1003.96
2018-02-15T02:58:33.969Z,1003.95
2018-02-15T02:59:33.949Z,1003.99
2018-02-15T03:00:33.925Z,1004.04
2018-02-15T03:01:33.902Z,1004.06
2018-02-15T03:02:33.881Z,1004
2018-02-15T03:03:33.859Z,1003.95
2018-02-15T03:04:33.838Z,1003.96
2018-02-15T03:05:33.814Z,1003.92
2018-02-15T03:06:33.795Z,1003.94
2018-02-15T03:07:33.772Z,1003.87
2018-02-15T03:08:33.748Z,1003.91
2018-02-15T03:09:33.726Z,1003.91
2018-02-15T03:10:33.705Z,1003.84
2018-02-15T03:11:33.684Z,1003.82
2018-02-15T03:12:33.660Z,1003.81
2018-02-15T03:13:33.638Z,1003.84
2018-02-15T03:14:33.617Z,1003.83
2018-02-15T03:15:33.596Z,1003.76
2018-02-15T03:16:33.576Z,1003.8
2018-02-15T03:17:33.550Z,1003.81
2018-02-15T03:18:33.528Z,1003.82
2018-02-15T03:19:33.713Z,1003.78
2018-02-15T03:20:33.490Z,1003.76
2018-02-15T03:21:33.463Z,1003.71
2018-02-15T03:22:33.440Z,1003.65
2018-02-15T03:23:33.421Z,1003.68
2018-02-15T03:24:33.400Z,1003.7
2018-02-15T03:25:33.381Z,1003.66
2018-02-15T03:26:33.357Z,1003.6
2018-02-15T03:27:33.334Z,1003.6
2018-02-15T03:28:33.313Z,1003.59
2018-02-15T03:29:33.289Z,1003.63
2018-02-15T03:30:33.271Z,1003.62
2018-02-15T03:31:33.249Z,1003.65
2018-02-15T03:32:33.225Z,1003.63
2018-02-15T03:33:33.203Z,1003.61
2018-02-15T03:34:33.179Z,1003.58
2018-02-15T03:35:33.161Z,1003.65
2018-02-15T03:36:33.136Z,1003.59
2018-02-15T03:37:33.120Z,1003.63
2018-02-15T03:38:33.093Z,1003.66
2018-02-15T03:39:33.072Z,1003.69
2018-02-15T03:40:33.053Z,1003.66
2018-02-15T03:41:33.029Z,1003.59
2018-02-15T03:42:33.007Z,1003.62
2018-02-15T03:43:32.984Z,1003.61
2018-02-15T03:44:32.964Z,1003.67
2018-02-15T03:45:32.943Z,1003.63
2018-02-15T03:46:32.920Z,1003.67
2018-02-15T03:47:32.898Z,1003.67
2018-02-15T03:48:32.877Z,1003.72
2018-02-15T03:49:32.857Z,1003.75
2018-02-15T03:50:32.832Z,1003.72
2018-02-15T03:51:32.812Z,1003.79
2018-02-15T03:52:32.789Z,1003.73
2018-02-15T03:53:32.769Z,1003.68
2018-02-15T03:54:32.745Z,1003.69
2018-02-15T03:55:32.723Z,1003.63
2018-02-15T03:56:32.700Z,1003.68
2018-02-15T03:57:32.680Z,1003.74
2018-02-15T03:58:32.656Z,1003.7
2018-02-15T03:59:32.637Z,1003.71
2018-02-15T04:00:32.616Z,1003.7
2018-02-15T04:01:32.593Z,1003.6
2018-02-15T04:02:32.574Z,1003.61
2018-02-15T04:03:32.549Z,1003.68
2018-02-15T04:04:32.529Z,1003.66
2018-02-15T04:05:32.505Z,1003.68
2018-02-15T04:06:32.483Z,1003.69
2018-02-15T04:07:32.464Z,1003.79
2018-02-15T04:08:32.442Z,1003.7
2018-02-15T04:09:32.416Z,1003.77
2018-02-15T04:10:32.396Z,1003.72
2018-02-15T04:11:32.375Z,1003.81
2018-02-15T04:12:32.356Z,1003.81
2018-02-15T04:13:32.337Z,1003.8
2018-02-15T04:14:32.310Z,1003.79
2018-02-15T04:15:32.288Z,1003.83
2018-02-15T04:16:32.265Z,1003.83
2018-02-15T04:17:32.258Z,1003.84
2018-02-15T04:18:32.223Z,1003.85
2018-02-15T04:19:32.204Z,1003.86
2018-02-15T04:20:32.177Z,1003.84
2018-02-15T04:21:32.157Z,1003.83
2018-02-15T04:22:32.137Z,1003.85
2018-02-15T04:23:32.113Z,1003.82
2018-02-15T04:24:32.092Z,1003.81
2018-02-15T04:25:32.071Z,1003.77
2018-02-15T04:26:32.049Z,1003.83
2018-02-15T04:27:32.025Z,1003.85
2018-02-15T04:28:32.005Z,1003.79
2018-02-15T04:29:31.983Z,1003.76
2018-02-15T04:30:31.961Z,1003.71
2018-02-15T04:31:31.939Z,1003.73
2018-02-15T04:32:31.921Z,1003.73
2018-02-15T04:33:31.896Z,1003.76
2018-02-15T04:34:31.875Z,1003.61
2018-02-15T04:35:31.852Z,1003.63
2018-02-15T04:36:31.833Z,1003.64
2018-02-15T04:37:31.816Z,1003.75
2018-02-15T04:38:31.788Z,1003.7
2018-02-15T04:39:31.766Z,1003.7
2018-02-15T04:40:31.743Z,1003.71
2018-02-15T04:41:31.722Z,1003.69
2018-02-15T04:42:31.701Z,1003.69
2018-02-15T04:43:31.677Z,1003.76
2018-02-15T04:44:31.654Z,1003.79
2018-02-15T04:45:31.639Z,1003.79
2018-02-15T04:46:31.613Z,1003.81
2018-02-15T04:47:31.588Z,1003.81
2018-02-15T04:48:31.573Z,1003.79
2018-02-15T04:49:31.546Z,1003.87
2018-02-15T04:50:31.521Z,1003.82
2018-02-15T04:51:31.498Z,1003.84
2018-02-15T04:52:31.501Z,1003.8
2018-02-15T04:53:31.455Z,1003.77
2018-02-15T04:54:31.432Z,1003.74
2018-02-15T04:55:31.412Z,1003.74
2018-02-15T04:56:31.387Z,1003.72
2018-02-15T04:57:31.364Z,1003.7
2018-02-15T04:58:31.340Z,1003.71
2018-02-15T04:59:31.323Z,1003.74
2018-02-15T05:00:31.294Z,1003.7
2018-02-15T05:01:31.272Z,1003.7
2018-02-15T05:02:31.255Z,1003.7
2018-02-15T05:03:31.232Z,1003.69
2018-02-15T05:04:31.204Z,1003.68
2018-02-15T05:05:31.183Z,1003.63
2018-02-15T05:06:31.156Z,1003.67
2018-02-15T05:07:31.131Z,1003.64
2018-02-15T05:08:31.108Z,1003.67
2018-02-15T05:09:31.085Z,1003.61
2018-02-15T05:10:31.065Z,1003.61
2018-02-15T05:11:31.041Z,1003.54
2018-02-15T05:12:31.017Z,1003.56
2018-02-15T05:13:30.997Z,1003.54
2018-02-15T05:14:30.970Z,1003.47
2018-02-15T05:15:30.947Z,1003.49
2018-02-15T05:16:30.922Z,1003.42
2018-02-15T05:17:30.898Z,1003.38
2018-02-15T05:18:30.879Z,1003.34
2018-02-15T05:19:31.054Z,1003.26
2018-02-15T05:20:30.832Z,1003.22
2018-02-15T05:21:30.806Z,1003.18
2018-02-15T05:22:30.783Z,1003.06
2018-02-15T05:23:30.757Z,1003.12
2018-02-15T05:24:30.737Z,1003.1
2018-02-15T05:25:30.711Z,1003.12
2018-02-15T05:26:30.689Z,1003.09
2018-02-15T05:27:30.664Z,1003.09
2018-02-15T05:28:30.638Z,1003.11
2018-02-15T05:29:30.616Z,1003.04
2018-02-15T05:30:30.591Z,1003
2018-02-15T05:31:30.568Z,1002.94
2018-02-15T05:32:30.545Z,1002.94
2018-02-15T05:33:30.521Z,1002.91
2018-02-15T05:34:30.500Z,1002.94
2018-02-15T05:35:30.478Z,1002.93
2018-02-15T05:36:30.452Z,1002.91
2018-02-15T05:37:30.425Z,1002.88
2018-02-15T05:38:30.407Z,1002.89
2018-02-15T05:39:30.378Z,1002.92
2018-02-15T05:40:30.354Z,1002.94
2018-02-15T05:41:30.333Z,1002.86
2018-02-15T05:42:30.313Z,1002.88
2018-02-15T05:43:30.285Z,1002.92
2018-02-15T05:44:30.260Z,1002.85
2018-02-15T05:45:30.236Z,1002.89
2018-02-15T05:46:30.216Z,1002.92
2018-02-15T05:47:30.190Z,1002.89
2018-02-15T05:48:30.164Z,1002.92
2018-02-15T05:49:30.140Z,1002.89
2018-02-15T05:50:30.117Z,1002.88
2018-02-15T05:51:30.093Z,1002.81
2018-02-15T05:52:30.069Z,1002.83
2018-02-15T05:53:30.047Z,1002.79
2018-02-15T05:54:30.022Z,1002.77
2018-02-15T05:55:30.002Z,1002.79
2018-02-15T05:56:29.977Z,1002.72
2018-02-15T05:57:29.954Z,1002.74
2018-02-15T05:58:29.927Z,1002.78
2018-02-15T05:59:29.905Z,1002.69
2018-02-15T06:00:29.881Z,1002.74
2018-02-15T06:01:29.857Z,1002.71
2018-02-15T06:02:29.832Z,1002.75
2018-02-15T06:03:29.809Z,1002.76
2018-02-15T06:04:29.785Z,1002.74
2018-02-15T06:05:29.761Z,1002.67
2018-02-15T06:06:29.738Z,1002.82
2018-02-15T06:07:29.714Z,1002.71
2018-02-15T06:08:29.691Z,1002.73
2018-02-15T06:09:29.670Z,1002.71
2018-02-15T06:10:29.643Z,1002.72
2018-02-15T06:11:29.618Z,1002.67
2018-02-15T06:12:29.595Z,1002.64
2018-02-15T06:13:29.572Z,1002.68
2018-02-15T06:14:29.547Z,1002.7
2018-02-15T06:15:29.525Z,1002.68
2018-02-15T06:16:29.500Z,1002.66
2018-02-15T06:17:29.481Z,1002.66
2018-02-15T06:18:29.454Z,1002.66
2018-02-15T06:19:29.431Z,1002.59
2018-02-15T06:20:29.407Z,1002.58
2018-02-15T06:21:29.383Z,1002.55
2018-02-15T06:22:29.357Z,1002.62
2018-02-15T06:23:29.338Z,1002.57
2018-02-15T06:24:29.309Z,1002.54
2018-02-15T06:25:29.289Z,1002.5
2018-02-15T06:26:29.262Z,1002.51
2018-02-15T06:27:29.240Z,1002.5
2018-02-15T06:28:29.213Z,1002.48
2018-02-15T06:29:29.190Z,1002.41
2018-02-15T06:30:29.166Z,1002.49
2018-02-15T06:31:29.144Z,1002.48
2018-02-15T06:32:29.119Z,1002.46
2018-02-15T06:33:29.096Z,1002.54
2018-02-15T06:34:29.092Z,1002.52
2018-02-15T06:35:29.048Z,1002.49
2018-02-15T06:36:29.024Z,1002.49
2018-02-15T06:37:28.999Z,1002.44
2018-02-15T06:38:28.977Z,1002.48
2018-02-15T06:39:28.953Z,1002.43
2018-02-15T06:40:28.927Z,1002.43
2018-02-15T06:41:28.904Z,1002.39
2018-02-15T06:42:28.881Z,1002.32
2018-02-15T06:43:28.854Z,1002.35
2018-02-15T06:44:28.831Z,1002.27
2018-02-15T06:45:28.808Z,1002.27
2018-02-15T06:46:28.783Z,1002.28
2018-02-15T06:47:28.758Z,1002.23
2018-02-15T06:48:28.737Z,1002.28
2018-02-15T06:49:28.712Z,1002.31
2018-02-15T06:50:28.689Z,1002.25
2018-02-15T06:51:28.663Z,1002.24
2018-02-15T06:52:28.641Z,1002.23
2018-02-15T06:53:28.616Z,1002.25
2018-02-15T06:54:28.593Z,1002.29
2018-02-15T06:55:28.572Z,1002.27
2018-02-15T06:56:28.547Z,1002.28
2018-02-15T06:57:28.523Z,1002.27
2018-02-15T06:58:28.500Z,1002.25
2018-02-15T06:59:28.474Z,1002.25
2018-02-15T07:00:28.448Z,1002.3
2018-02-15T07:01:28.426Z,1002.28
2018-02-15T07:02:28.403Z,1002.25
2018-02-15T07:03:28.377Z,1002.28
2018-02-15T07:04:28.352Z,1002.27
2018-02-15T07:05:28.334Z,1002.25
2018-02-15T07:06:28.306Z,1002.31
2018-02-15T07:07:28.326Z,1002.34
2018-02-15T07:08:28.257Z,1002.25
2018-02-15T07:09:28.236Z,1002.22
2018-02-15T07:10:28.211Z,1002.27
2018-02-15T07:11:28.185Z,1002.25
2018-02-15T07:12:28.161Z,1002.28
2018-02-15T07:13:28.136Z,1002.27
2018-02-15T07:14:28.114Z,1002.27
2018-02-15T07:15:28.091Z,1002.29
2018-02-15T07:16:28.067Z,1002.19
2018-02-15T07:17:28.046Z,1002.23
2018-02-15T07:18:28.018Z,1002.2
2018-02-15T07:19:28.195Z,1002.18
2018-02-15T07:20:27.971Z,1002.19
2018-02-15T07:21:27.946Z,1002.15
2018-02-15T07:22:27.922Z,1002.23
2018-02-15T07:23:27.898Z,1002.23
2018-02-15T07:24:27.874Z,1002.17
2018-02-15T07:25:27.852Z,1002.15
2018-02-15T07:26:27.824Z,1002.19
2018-02-15T07:27:27.807Z,1002.22
2018-02-15T07:28:27.779Z,1002.17
2018-02-15T07:29:27.756Z,1002.18
2018-02-15T07:30:27.730Z,1002.23
2018-02-15T07:31:27.706Z,1002.25
2018-02-15T07:32:27.686Z,1002.26
2018-02-15T07:33:27.664Z,1002.26
2018-02-15T07:34:27.638Z,1002.33
2018-02-15T07:35:27.615Z,1002.32
2018-02-15T07:36:27.617Z,1002.3
2018-02-15T07:37:27.563Z,1002.36
2018-02-15T07:38:27.539Z,1002.4
2018-02-15T07:39:27.515Z,1002.35
2018-02-15T07:40:27.493Z,1002.41
2018-02-15T07:41:27.472Z,1002.39
2018-02-15T07:42:27.448Z,1002.41
2018-02-15T07:43:27.426Z,1002.4
2018-02-15T07:44:27.398Z,1002.38
2018-02-15T07:45:27.373Z,1002.42
2018-02-15T07:46:27.352Z,1002.37
2018-02-15T07:47:27.328Z,1002.4
2018-02-15T07:48:27.310Z,1002.39
2018-02-15T07:49:27.319Z,1002.34
2018-02-15T07:50:27.256Z,1002.35
2018-02-15T07:51:27.231Z,1002.28
2018-02-15T07:52:27.213Z,1002.31
2018-02-15T07:53:27.187Z,1002.33
2018-02-15T07:54:27.165Z,1002.31
2018-02-15T07:55:27.138Z,1002.3
2018-02-15T07:56:27.113Z,1002.28
2018-02-15T07:57:27.091Z,1002.24
2018-02-15T07:58:27.068Z,1002.24
2018-02-15T07:59:27.042Z,1002.23
2018-02-15T08:00:27.021Z,1002.25
2018-02-15T08:01:26.996Z,1002.22
2018-02-15T08:02:26.973Z,1002.26
2018-02-15T08:03:26.950Z,1002.2
2018-02-15T08:04:26.927Z,1002.2
2018-02-15T08:05:26.902Z,1002.2
2018-02-15T08:06:26.880Z,1002.2
2018-02-15T08:07:26.856Z,1002.25
2018-02-15T08:08:26.831Z,1002.22
2018-02-15T08:09:26.808Z,1002.22
2018-02-15T08:10:26.785Z,1002.23
2018-02-15T08:11:26.764Z,1002.2
2018-02-15T08:12:26.737Z,1002.27
2018-02-15T08:13:26.715Z,1002.23
2018-02-15T08:14:26.692Z,1002.18
2018-02-15T08:15:26.670Z,1002.16
2018-02-15T08:16:26.645Z,1002.19
2018-02-15T08:17:26.630Z,1002.14
2018-02-15T08:18:26.598Z,1002.17
2018-02-15T08:19:26.576Z,1002.2
2018-02-15T08:20:26.555Z,1002.21
2018-02-15T08:21:26.527Z,1002.2
2018-02-15T08:22:26.505Z,1002.18
2018-02-15T08:23:26.488Z,1002.22
2018-02-15T08:24:26.464Z,1002.2
2018-02-15T08:25:26.435Z,1002.23
2018-02-15T08:26:26.414Z,1002.2
2018-02-15T08:27:26.390Z,1002.14
2018-02-15T08:28:26.366Z,1002.21
2018-02-15T08:29:26.342Z,1002.18
2018-02-15T08:30:26.323Z,1002.17
2018-02-15T08:31:26.297Z,1002.19
2018-02-15T08:32:26.275Z,1002.27
2018-02-15T08:33:26.252Z,1002.13
2018-02-15T08:34:26.228Z,1002.17
2018-02-15T08:35:26.204Z,1002.17
2018-02-15T08:36:26.180Z,1002.22
2018-02-15T08:37:26.196Z,1002.21
2018-02-15T08:38:26.135Z,1002.16
2018-02-15T08:39:26.115Z,1002.2
2018-02-15T08:40:26.090Z,1002.2
2018-02-15T08:41:26.065Z,1002.19
2018-02-15T08:42:26.046Z,1002.2
2018-02-15T08:43:26.020Z,1002.24
2018-02-15T08:44:25.998Z,1002.1
2018-02-15T08:45:25.974Z,1002.13
2018-02-15T08:46:25.953Z,1002.16
2018-02-15T08:47:25.928Z,1002.05
2018-02-15T08:48:25.905Z,1002.09
2018-02-15T08:49:25.882Z,1002.11
2018-02-15T08:50:25.858Z,1002.11
2018-02-15T08:51:25.835Z,1002.08
2018-02-15T08:52:25.813Z,1002.1
2018-02-15T08:53:25.792Z,1002.17
2018-02-15T08:54:25.766Z,1002.19
2018-02-15T08:55:25.747Z,1002.2
2018-02-15T08:56:25.723Z,1002.25
2018-02-15T08:57:25.702Z,1002.25
2018-02-15T08:58:25.673Z,1002.27
2018-02-15T08:59:25.656Z,1002.25
2018-02-15T09:00:25.629Z,1002.27
2018-02-15T09:01:25.604Z,1002.3
2018-02-15T09:02:25.583Z,1002.32
2018-02-15T09:03:25.561Z,1002.23
2018-02-15T09:04:25.537Z,1002.3
2018-02-15T09:05:25.513Z,1002.31
2018-02-15T09:06:25.489Z,1002.26
2018-02-15T09:07:25.473Z,1002.21
2018-02-15T09:08:25.445Z,1002.21
2018-02-15T09:09:25.421Z,1002.26
2018-02-15T09:10:25.399Z,1002.23
2018-02-15T09:11:25.375Z,1002.21
2018-02-15T09:12:25.353Z,1002.26
2018-02-15T09:13:25.332Z,1002.16
2018-02-15T09:14:25.306Z,1002.13
2018-02-15T09:15:25.283Z,1002.2
2018-02-15T09:16:25.262Z,1002.2
2018-02-15T09:17:25.239Z,1002.18
2018-02-15T09:18:25.219Z,1002.17
2018-02-15T09:19:25.394Z,1002.19
2018-02-15T09:20:25.171Z,1002.21
2018-02-15T09:21:25.149Z,1002.19
2018-02-15T09:22:25.123Z,1002.18
2018-02-15T09:23:25.098Z,1002.17
2018-02-15T09:24:25.080Z,1002.16
2018-02-15T09:25:25.056Z,1002.19
2018-02-15T09:26:25.032Z,1002.16
2018-02-15T09:27:25.009Z,1002.22
2018-02-15T09:28:24.985Z,1002.2
2018-02-15T09:29:24.963Z,1002.2
2018-02-15T09:30:24.940Z,1002.19
2018-02-15T09:31:24.917Z,1002.2
2018-02-15T09:32:24.897Z,1002.22
2018-02-15T09:33:24.871Z,1002.24
2018-02-15T09:34:24.851Z,1002.21
2018-02-15T09:35:24.831Z,1002.21
2018-02-15T09:36:24.804Z,1002.14
2018-02-15T09:37:24.782Z,1002.15
2018-02-15T09:38:24.758Z,1002.12
2018-02-15T09:39:24.736Z,1002.11
2018-02-15T09:40:24.715Z,1002.15
2018-02-15T09:41:24.693Z,1002.06
2018-02-15T09:42:24.669Z,1002.08
2018-02-15T09:43:24.649Z,1002.04
2018-02-15T09:44:24.625Z,1002.13
2018-02-15T09:45:24.602Z,1002.08
2018-02-15T09:46:24.579Z,1002.01
2018-02-15T09:47:24.559Z,1002.04
2018-02-15T09:48:24.535Z,1002.01
2018-02-15T09:49:24.512Z,1002
2018-02-15T09:50:24.493Z,1002.1
2018-02-15T09:51:24.470Z,1002.18
2018-02-15T09:52:24.460Z,1002.11
2018-02-15T09:53:24.423Z,1002.14
2018-02-15T09:54:24.410Z,1002.15
2018-02-15T09:55:24.379Z,1002.18
2018-02-15T09:56:24.359Z,1002.24
2018-02-15T09:57:24.335Z,1002.18
2018-02-15T09:58:24.312Z,1002.19
2018-02-15T09:59:24.290Z,1002.19
2018-02-15T10:00:24.266Z,1002.17
2018-02-15T10:01:24.245Z,1002.21
2018-02-15T10:02:24.223Z,1002.2
2018-02-15T10:03:24.202Z,1002.26
2018-02-15T10:04:24.180Z,1002.24
2018-02-15T10:05:24.156Z,1002.24
2018-02-15T10:06:24.134Z,1002.19
2018-02-15T10:07:24.114Z,1002.22
2018-02-15T10:08:24.090Z,1002.22
2018-02-15T10:09:24.073Z,1002.24
2018-02-15T10:10:24.080Z,1002.2
2018-02-15T10:11:24.024Z,1002.23
2018-02-15T10:12:24.003Z,1002.22
2018-02-15T10:13:23.981Z,1002.32
2018-02-15T10:14:23.958Z,1002.28
2018-02-15T10:15:23.940Z,1002.25
2018-02-15T10:16:23.917Z,1002.29
2018-02-15T10:17:23.893Z,1002.32
2018-02-15T10:18:23.868Z,1002.37
2018-02-15T10:19:23.850Z,1002.31
2018-02-15T10:20:23.827Z,1002.31
2018-02-15T10:21:23.803Z,1002.23
2018-02-15T10:22:23.780Z,1002.27
2018-02-15T10:23:23.758Z,1002.24
2018-02-15T10:24:23.737Z,1002.26
2018-02-15T10:25:23.714Z,1002.19
2018-02-15T10:26:23.691Z,1002.17
2018-02-15T10:27:23.669Z,1002.17
2018-02-15T10:28:23.649Z,1002.07
2018-02-15T10:29:23.646Z,1002.14
2018-02-15T10:30:23.603Z,1002.18
2018-02-15T10:31:23.582Z,1002.05
2018-02-15T10:32:23.557Z,1002.08
2018-02-15T10:33:23.535Z,1002.14
2018-02-15T10:34:23.513Z,1002.11
2018-02-15T10:35:23.493Z,1002.15
2018-02-15T10:36:23.469Z,1002.15
2018-02-15T10:37:23.446Z,1002.12
2018-02-15T10:38:23.425Z,1002.09
2018-02-15T10:39:23.405Z,1002.06
2018-02-15T10:40:23.378Z,1002.13
2018-02-15T10:41:23.356Z,1002.15
2018-02-15T10:42:23.339Z,1002.13
2018-02-15T10:43:23.315Z,1002.14
2018-02-15T10:44:23.291Z,1002.17
2018-02-15T10:45:23.269Z,1002.14
2018-02-15T10:46:23.245Z,1002.15
2018-02-15T10:47:23.223Z,1002.17
2018-02-15T10:48:23.201Z,1002.18
2018-02-15T10:49:23.182Z,1002.17
2018-02-15T10:50:23.156Z,1002.17
2018-02-15T10:51:23.132Z,1002.15
2018-02-15T10:52:23.120Z,1002.16
2018-02-15T10:53:23.089Z,1002.16
2018-02-15T10:54:23.065Z,1002.19
2018-02-15T10:55:23.044Z,1002.21
2018-02-15T10:56:23.022Z,1002.23
2018-02-15T10:57:22.999Z,1002.26
2018-02-15T10:58:22.975Z,1002.29
2018-02-15T10:59:22.952Z,1002.32
2018-02-15T11:00:22.931Z,1002.35
2018-02-15T11:01:22.909Z,1002.33
2018-02-15T11:02:22.886Z,1002.39
2018-02-15T11:03:22.868Z,1002.42
2018-02-15T11:04:22.850Z,1002.4
2018-02-15T11:05:22.819Z,1002.42
2018-02-15T11:06:22.802Z,1002.42
2018-02-15T11:07:22.773Z,1002.41
2018-02-15T11:08:22.753Z,1002.36
2018-02-15T11:09:22.731Z,1002.39
2018-02-15T11:10:22.708Z,1002.38
2018-02-15T11:11:22.684Z,1002.4
2018-02-15T11:12:22.665Z,1002.48
2018-02-15T11:13:22.640Z,1002.43
2018-02-15T11:14:22.619Z,1002.4
2018-02-15T11:15:22.596Z,1002.42
2018-02-15T11:16:22.588Z,1002.48
2018-02-15T11:17:22.550Z,1002.45
2018-02-15T11:18:22.531Z,1002.51
2018-02-15T11:19:22.912Z,1002.46
2018-02-15T11:20:22.483Z,1002.53
2018-02-15T11:21:22.461Z,1002.49
2018-02-15T11:22:22.439Z,1002.47
2018-02-15T11:23:22.418Z,1002.51
2018-02-15T11:24:22.398Z,1002.55
2018-02-15T11:25:22.370Z,1002.55
2018-02-15T11:26:22.350Z,1002.55
2018-02-15T11:27:22.332Z,1002.54
2018-02-15T11:28:22.305Z,1002.54
2018-02-15T11:29:22.284Z,1002.55
2018-02-15T11:30:22.264Z,1002.53
2018-02-15T11:31:22.242Z,1002.58
2018-02-15T11:32:22.219Z,1002.51
2018-02-15T11:33:22.194Z,1002.51
2018-02-15T11:34:22.182Z,1002.58
2018-02-15T11:35:22.148Z,1002.5
2018-02-15T11:36:22.126Z,1002.56
2018-02-15T11:37:22.103Z,1002.53
2018-02-15T11:38:22.090Z,1002.54
2018-02-15T11:39:22.067Z,1002.61
2018-02-15T11:40:22.038Z,1002.58
2018-02-15T11:41:22.017Z,1002.61
2018-02-15T11:42:21.990Z,1002.6
2018-02-15T11:43:21.970Z,1002.59
2018-02-15T11:44:21.958Z,1002.59
2018-02-15T11:45:21.924Z,1002.57
2018-02-15T11:46:21.901Z,1002.58
2018-02-15T11:47:21.879Z,1002.52
2018-02-15T11:48:21.861Z,1002.57
2018-02-15T11:49:21.836Z,1002.58
2018-02-15T11:50:21.818Z,1002.6
2018-02-15T11:51:21.791Z,1002.57
2018-02-15T11:52:21.768Z,1002.58
2018-02-15T11:53:21.743Z,1002.61
2018-02-15T11:54:21.723Z,1002.62
2018-02-15T11:55:21.704Z,1002.63
2018-02-15T11:56:21.676Z,1002.65
2018-02-15T11:57:21.654Z,1002.71
2018-02-15T11:58:21.633Z,1002.72
2018-02-15T11:59:21.610Z,1002.75
2018-02-15T12:00:21.592Z,1002.76
2018-02-15T12:01:21.576Z,1002.75
2018-02-15T12:02:21.542Z,1002.74
2018-02-15T12:03:21.521Z,1002.75
2018-02-15T12:04:21.500Z,1002.74
2018-02-15T12:05:21.477Z,1002.71
2018-02-15T12:06:21.455Z,1002.71
2018-02-15T12:07:21.436Z,1002.71
2018-02-15T12:08:21.409Z,1002.7